Time;durP1;ratioP1;P1;durP2;ratioP2;P2;SDS_P1;SDS_P2;PMS_P1;PMS_P2;Temp;Humidity;BMP_temperature;BMP_pressure;BME280_temperature;BME280_humidity;BME280_pressure;Samples;Min_cycle;Max_cycle;Signal;HPM_P1;HPM_P2
2023/01/29 00:01:09;;;;;;;6.90;5.60;;;3.50;99.90;;;;;;4974450;28;20601;-79
2023/01/29 00:03:46;;;;;;;6.37;5.50;;;3.50;99.90;;;;;;4956964;28;20280;-78
2023/01/29 00:06:15;;;;;;;6.37;4.93;;;3.50;99.90;;;;;;4974256;28;20235;-79
2023/01/29 00:11:27;;;;;;;7.73;5.40;;;3.60;99.90;;;;;;4973470;28;20220;-79
2023/01/29 00:13:55;;;;;;;11.23;6.57;;;3.60;99.90;;;;;;4956972;28;20820;-79
2023/01/29 00:16:47;;;;;;;8.70;6.00;;;3.70;99.90;;;;;;4979897;23;20276;-80
2023/01/29 00:19:24;;;;;;;7.53;5.40;;;3.60;99.90;;;;;;4973852;28;20690;-79
2023/01/29 00:22:01;;;;;;;9.47;6.23;;;3.60;99.90;;;;;;4974191;28;20284;-78
2023/01/29 00:24:37;;;;;;;7.40;5.80;;;3.60;99.90;;;;;;4973945;28;20228;-79
2023/01/29 00:27:09;;;;;;;7.33;5.33;;;3.60;99.90;;;;;;4967926;23;20323;-79
2023/01/29 00:29:42;;;;;;;6.47;5.50;;;3.60;99.90;;;;;;4937487;29;20211;-79
2023/01/29 00:32:17;;;;;;;6.77;5.70;;;3.50;99.90;;;;;;4954647;29;20306;-79
2023/01/29 00:34:47;;;;;;;6.80;5.63;;;3.50;99.90;;;;;;4937240;29;20201;-79
2023/01/29 00:37:23;;;;;;;6.47;5.87;;;3.50;99.90;;;;;;4937224;29;20264;-79
2023/01/29 00:39:55;;;;;;;6.20;5.43;;;3.50;99.90;;;;;;4937173;29;20232;-79
2023/01/29 00:45:23;;;;;;;9.87;5.57;;;3.50;99.90;;;;;;4937013;29;20305;-80
2023/01/29 00:47:54;;;;;;;8.93;6.17;;;3.50;99.90;;;;;;4937126;29;20216;-79
2023/01/29 00:50:25;;;;;;;7.07;6.10;;;3.50;99.90;;;;;;4954285;29;20201;-79
2023/01/29 00:52:54;;;;;;;10.00;6.47;;;3.50;99.90;;;;;;4954465;29;20280;-79
2023/01/29 00:55:35;;;;;;;10.03;7.37;;;3.40;99.90;;;;;;4953247;28;20205;-79
2023/01/29 00:58:05;;;;;;;8.80;5.77;;;3.40;99.90;;;;;;4936954;29;20288;-79
2023/01/29 01:00:52;;;;;;;10.40;6.50;;;3.50;99.90;;;;;;4954146;29;20230;-79
2023/01/29 01:03:24;;;;;;;8.83;6.03;;;3.40;99.90;;;;;;4936833;29;20206;-79
2023/01/29 01:06:05;;;;;;;6.77;5.30;;;3.30;99.90;;;;;;4954123;29;20199;-79
2023/01/29 01:11:30;;;;;;;8.87;6.53;;;3.30;99.90;;;;;;4934843;29;20198;-80
2023/01/29 01:14:01;;;;;;;7.80;6.37;;;3.20;99.90;;;;;;4933927;29;20211;-79
2023/01/29 01:16:30;;;;;;;8.83;5.73;;;3.20;99.90;;;;;;4933574;29;20581;-79
2023/01/29 01:19:39;;;;;;;7.20;6.33;;;3.20;99.90;;;;;;4935007;29;20207;-79
2023/01/29 01:22:16;;;;;;;8.13;6.33;;;3.20;99.90;;;;;;4934706;29;20201;-79
2023/01/29 01:25:04;;;;;;;7.07;5.53;;;3.20;99.90;;;;;;4949528;29;20618;-79
2023/01/29 01:27:36;;;;;;;6.60;5.97;;;3.10;99.90;;;;;;4933581;29;20301;-79
2023/01/29 01:30:26;;;;;;;6.70;5.77;;;3.10;99.90;;;;;;4933215;29;20357;-79
2023/01/29 01:32:56;;;;;;;8.67;5.33;;;3.10;99.90;;;;;;4951688;23;20240;-79
2023/01/29 01:35:27;;;;;;;7.40;6.53;;;3.10;99.90;;;;;;4953990;28;20208;-79
2023/01/29 01:37:56;;;;;;;7.53;5.63;;;3.10;99.90;;;;;;4953775;28;20569;-80
2023/01/29 01:40:44;;;;;;;8.07;6.37;;;3.10;99.90;;;;;;4952592;29;20201;-79
2023/01/29 01:43:16;;;;;;;9.07;5.77;;;3.10;99.90;;;;;;4953707;28;20679;-79
2023/01/29 01:45:49;;;;;;;8.47;6.20;;;3.20;99.90;;;;;;4954024;29;20224;-79
2023/01/29 01:51:21;;;;;;;7.33;5.53;;;3.10;99.90;;;;;;4952572;29;20259;-80
2023/01/29 01:54:03;;;;;;;6.83;5.80;;;3.20;99.90;;;;;;4962350;23;20224;-80
2023/01/29 01:56:41;;;;;;;6.43;5.20;;;3.10;99.90;;;;;;4955582;28;20210;-80
2023/01/29 01:59:21;;;;;;;6.53;5.83;;;3.10;99.90;;;;;;4955650;28;20224;-79
2023/01/29 02:01:54;;;;;;;6.73;6.07;;;3.10;99.90;;;;;;4972836;28;20197;-80
2023/01/29 02:10:18;;;;;;;6.47;5.87;;;3.10;99.90;;;;;;4959142;28;20299;-80
2023/01/29 02:12:54;;;;;;;6.87;6.17;;;3.10;99.90;;;;;;4958972;28;20204;-80
2023/01/29 02:15:37;;;;;;;8.07;6.50;;;3.10;99.90;;;;;;4976352;28;20208;-80
2023/01/29 02:21:05;;;;;;;7.00;6.23;;;3.10;99.90;;;;;;4974803;28;20213;-80
2023/01/29 02:24:36;;;;;;;6.05;5.50;;;3.10;99.90;;;;;;4957470;28;20681;-80
2023/01/29 02:27:13;;;;;;;8.80;5.97;;;3.10;99.90;;;;;;4976199;28;20916;-80
2023/01/29 02:30:24;;;;;;;10.43;7.00;;;3.00;99.90;;;;;;4976029;28;20215;-80
2023/01/29 02:33:08;;;;;;;8.27;6.43;;;3.00;99.90;;;;;;4958930;28;20626;-80
2023/01/29 02:35:54;;;;;;;6.33;5.63;;;3.00;99.90;;;;;;4976063;28;20197;-79
2023/01/29 02:38:42;;;;;;;7.93;5.30;;;3.00;99.90;;;;;;4958610;28;20211;-79
2023/01/29 02:41:21;;;;;;;8.07;6.23;;;3.10;99.90;;;;;;4958130;28;20247;-80
2023/01/29 02:44:16;;;;;;;9.20;7.07;;;3.00;99.90;;;;;;4958564;28;20239;-80
2023/01/29 02:47:00;;;;;;;7.70;6.30;;;3.00;99.90;;;;;;4975862;28;20201;-80
2023/01/29 02:49:43;;;;;;;8.93;7.20;;;3.10;99.90;;;;;;4958098;28;20647;-80
2023/01/29 02:52:23;;;;;;;6.50;5.83;;;3.10;99.90;;;;;;4982546;23;20240;-79
2023/01/29 02:57:46;;;;;;;8.53;6.97;;;3.10;99.90;;;;;;4957161;28;20635;-80
2023/01/29 03:00:21;;;;;;;7.43;6.70;;;3.10;99.90;;;;;;4975860;28;20229;-80
2023/01/29 03:02:58;;;;;;;9.70;7.27;;;3.10;99.90;;;;;;4975250;28;20278;-80
2023/01/29 03:05:31;;;;;;;9.53;6.57;;;3.10;99.90;;;;;;4958230;28;20773;-80
2023/01/29 03:08:09;;;;;;;8.57;7.63;;;3.20;99.90;;;;;;5045483;23;20229;-81
2023/01/29 03:11:13;;;;;;;9.97;7.13;;;3.20;99.90;;;;;;4966695;23;20207;-80
2023/01/29 03:13:53;;;;;;;9.53;7.57;;;3.20;99.90;;;;;;4918088;29;20241;-80
2023/01/29 03:16:30;;;;;;;7.10;6.40;;;3.20;99.90;;;;;;4920007;29;20209;-81
2023/01/29 03:19:18;;;;;;;9.17;7.37;;;3.20;99.90;;;;;;4918931;29;20224;-80
2023/01/29 03:21:57;;;;;;;9.17;6.50;;;3.10;99.90;;;;;;4919942;29;20256;-80
2023/01/29 03:33:46;;;;;;;8.33;5.87;;;3.10;99.90;;;;;;4919532;29;20206;-81
2023/01/29 03:36:37;;;;;;;7.43;6.67;;;3.20;99.90;;;;;;4936549;29;20198;-80
2023/01/29 03:39:29;;;;;;;10.00;6.33;;;3.20;99.90;;;;;;4915998;29;20205;-81
2023/01/29 03:42:10;;;;;;;8.93;6.57;;;3.10;99.90;;;;;;4919239;29;20211;-81
2023/01/29 03:44:51;;;;;;;8.67;6.47;;;3.20;99.90;;;;;;4919086;29;20206;-80
2023/01/29 03:48:02;;;;;;;6.03;5.43;;;3.20;99.90;;;;;;4915907;29;20556;-81
2023/01/29 03:50:46;;;;;;;6.20;5.60;;;3.20;99.90;;;;;;4919090;29;20307;-80
2023/01/29 03:53:28;;;;;;;8.60;6.00;;;3.10;99.90;;;;;;4919165;29;20225;-80
2023/01/29 03:56:30;;;;;;;8.10;7.00;;;3.10;99.90;;;;;;4919138;29;20214;-81
2023/01/29 03:59:33;;;;;;;6.13;5.50;;;3.10;99.90;;;;;;4945417;23;20243;-81
2023/01/29 04:02:35;;;;;;;8.53;5.67;;;3.10;99.90;;;;;;4974480;28;20256;-81
2023/01/29 04:05:19;;;;;;;6.87;5.80;;;3.10;99.90;;;;;;4956988;28;20230;-81
2023/01/29 04:08:22;;;;;;;7.03;6.00;;;3.20;99.90;;;;;;4956498;28;20237;-80
2023/01/29 04:10:56;;;;;;;6.73;5.87;;;3.10;99.90;;;;;;4956901;28;20262;-81
2023/01/29 04:13:26;;;;;;;6.10;5.07;;;3.10;99.90;;;;;;4956737;28;20198;-81
2023/01/29 04:16:13;;;;;;;6.73;5.57;;;3.20;99.90;;;;;;4974256;28;20223;-81
2023/01/29 04:19:12;;;;;;;6.47;5.10;;;3.20;99.90;;;;;;4957018;28;20714;-80
2023/01/29 04:21:44;;;;;;;5.27;4.77;;;3.10;99.90;;;;;;4955314;28;20208;-80
2023/01/29 04:24:15;;;;;;;5.40;4.90;;;3.10;99.90;;;;;;4956953;28;20205;-81
2023/01/29 04:27:16;;;;;;;5.30;4.80;;;3.10;99.90;;;;;;4973824;28;20221;-80
2023/01/29 04:30:04;;;;;;;5.20;4.80;;;3.10;99.90;;;;;;4956777;28;20212;-81
2023/01/29 04:36:10;;;;;;;6.43;4.83;;;3.20;99.90;;;;;;4955502;28;20266;-81
2023/01/29 04:39:31;;;;;;;4.80;4.40;;;3.30;99.90;;;;;;4956270;28;20210;-80
2023/01/29 04:42:20;;;;;;;4.43;4.03;;;3.20;99.90;;;;;;4973686;28;20210;-81
2023/01/29 04:44:59;;;;;;;4.97;4.57;;;3.20;99.90;;;;;;4973879;28;20273;-81
2023/01/29 04:47:35;;;;;;;4.73;4.30;;;3.20;99.90;;;;;;4973932;28;20231;-81
2023/01/29 04:50:38;;;;;;;4.67;4.17;;;3.20;99.90;;;;;;4973976;28;20588;-80
2023/01/29 04:53:15;;;;;;;4.67;4.27;;;3.20;99.90;;;;;;4973646;28;20201;-81
2023/01/29 04:55:48;;;;;;;5.10;4.60;;;3.20;99.90;;;;;;4973486;28;20211;-80
2023/01/29 04:58:26;;;;;;;3.87;3.57;;;3.20;99.90;;;;;;4973091;28;20322;-80
2023/01/29 05:00:56;;;;;;;4.80;4.10;;;3.20;99.90;;;;;;4973489;28;20545;-81
2023/01/29 05:03:35;;;;;;;4.63;3.87;;;3.20;99.90;;;;;;4973512;28;20189;-81
2023/01/29 05:06:06;;;;;;;4.10;3.80;;;3.20;99.90;;;;;;4973469;28;20208;-80
2023/01/29 05:08:39;;;;;;;5.60;3.90;;;3.30;99.90;;;;;;4980530;23;20250;-80
2023/01/29 05:11:08;;;;;;;5.87;4.07;;;3.30;99.90;;;;;;4956402;28;20214;-79
2023/01/29 05:13:48;;;;;;;4.17;3.83;;;3.30;99.90;;;;;;4973380;28;20206;-80
2023/01/29 05:16:22;;;;;;;4.90;4.43;;;3.30;99.90;;;;;;4973443;28;20695;-80
2023/01/29 05:18:52;;;;;;;5.10;3.83;;;3.40;99.90;;;;;;4973196;28;20238;-80
2023/01/29 05:21:28;;;;;;;5.57;4.37;;;3.40;99.90;;;;;;4973157;28;20671;-80
2023/01/29 05:24:15;;;;;;;5.57;4.97;;;3.40;99.90;;;;;;4973282;28;20197;-80
2023/01/29 05:29:35;;;;;;;5.80;5.13;;;3.50;99.90;;;;;;4973133;28;20221;-80
2023/01/29 05:32:04;;;;;;;7.00;4.87;;;3.50;99.90;;;;;;4973209;28;20358;-79
2023/01/29 05:34:33;;;;;;;8.37;6.07;;;3.50;99.90;;;;;;4973246;28;20213;-80
2023/01/29 05:37:02;;;;;;;7.63;6.07;;;3.50;99.90;;;;;;4955902;28;20266;-80
2023/01/29 05:39:31;;;;;;;6.87;5.73;;;3.50;99.90;;;;;;4973199;28;20208;-80
2023/01/29 05:42:00;;;;;;;6.13;5.50;;;3.50;99.90;;;;;;4974396;28;20725;-80
2023/01/29 05:44:44;;;;;;;11.47;7.23;;;3.50;99.90;;;;;;4975560;28;20209;-80
2023/01/29 05:47:19;;;;;;;10.47;7.17;;;3.50;99.90;;;;;;4976744;28;20724;-81
2023/01/29 05:49:48;;;;;;;9.23;7.87;;;3.50;99.90;;;;;;4977231;28;20196;-80
2023/01/29 05:52:17;;;;;;;11.03;8.47;;;3.60;99.90;;;;;;4976988;28;20276;-80
2023/01/29 05:55:10;;;;;;;11.63;8.23;;;3.50;99.90;;;;;;4975450;28;20291;-80
2023/01/29 05:57:40;;;;;;;10.70;7.50;;;3.60;99.90;;;;;;4976748;28;20210;-80
2023/01/29 06:00:20;;;;;;;15.57;8.63;;;3.60;99.90;;;;;;4976733;28;20210;-80
2023/01/29 06:02:49;;;;;;;12.43;9.00;;;3.60;99.90;;;;;;4973592;23;20706;-80
2023/01/29 06:05:18;;;;;;;10.73;7.60;;;3.60;99.90;;;;;;4957443;29;20280;-80
2023/01/29 06:07:47;;;;;;;14.30;7.73;;;3.60;99.90;;;;;;4957355;29;20238;-80
2023/01/29 06:10:17;;;;;;;11.37;7.50;;;3.60;99.90;;;;;;4957253;29;20256;-79
2023/01/29 06:12:47;;;;;;;14.70;7.90;;;3.60;99.90;;;;;;4957080;29;20209;-80
2023/01/29 06:15:18;;;;;;;11.43;8.00;;;3.70;99.90;;;;;;4957321;29;20635;-80
2023/01/29 06:17:47;;;;;;;16.47;10.03;;;3.70;99.90;;;;;;4957186;29;20731;-80
2023/01/29 06:20:16;;;;;;;15.43;9.40;;;3.80;99.90;;;;;;4957758;29;20989;-80
2023/01/29 06:22:45;;;;;;;13.60;9.23;;;3.90;99.90;;;;;;4957486;29;20199;-80
2023/01/29 06:25:14;;;;;;;17.73;9.47;;;3.90;99.90;;;;;;4957191;29;20246;-80
2023/01/29 06:27:43;;;;;;;15.00;9.17;;;3.90;99.90;;;;;;4957088;29;20228;-80
2023/01/29 06:30:49;;;;;;;12.23;9.17;;;3.90;99.90;;;;;;4956859;29;20302;-80
2023/01/29 06:33:18;;;;;;;13.03;9.10;;;3.90;99.90;;;;;;4957132;29;20345;-80
2023/01/29 06:36:21;;;;;;;13.57;8.10;;;3.90;99.90;;;;;;4955949;29;20236;-80
2023/01/29 06:39:01;;;;;;;16.80;9.20;;;3.80;99.90;;;;;;4956794;29;20193;-80
2023/01/29 06:41:30;;;;;;;16.20;9.47;;;3.90;99.90;;;;;;4956803;29;20334;-80
2023/01/29 06:44:07;;;;;;;13.57;7.27;;;3.90;99.90;;;;;;4956877;29;20638;-80
2023/01/29 06:46:45;;;;;;;13.90;8.57;;;4.00;99.90;;;;;;4956503;29;20209;-80
2023/01/29 06:49:14;;;;;;;12.00;7.90;;;4.00;99.90;;;;;;4956651;29;20207;-80
2023/01/29 06:52:00;;;;;;;10.97;8.03;;;4.00;99.90;;;;;;4939457;29;20485;-80
2023/01/29 06:54:29;;;;;;;10.53;7.47;;;4.00;99.90;;;;;;4955201;28;20250;-80
2023/01/29 06:57:38;;;;;;;10.83;7.30;;;4.00;99.90;;;;;;4956451;29;20207;-80
2023/01/29 07:00:17;;;;;;;18.07;8.13;;;4.00;99.90;;;;;;4956816;29;20221;-80
2023/01/29 07:03:30;;;;;;;12.77;7.47;;;4.10;99.90;;;;;;4955816;29;20228;-80
2023/01/29 07:06:00;;;;;;;11.53;7.27;;;4.10;99.90;;;;;;4973222;23;20282;-80
2023/01/29 07:08:43;;;;;;;18.50;10.40;;;4.10;99.90;;;;;;4974129;28;20297;-80
2023/01/29 07:11:13;;;;;;;12.17;8.10;;;4.10;99.90;;;;;;4975617;28;20308;-80
2023/01/29 07:13:42;;;;;;;10.83;6.90;;;4.10;99.90;;;;;;4975469;28;20289;-80
2023/01/29 07:16:10;;;;;;;9.03;7.20;;;4.10;99.90;;;;;;4975669;28;20256;-80
2023/01/29 07:18:42;;;;;;;11.00;7.07;;;4.20;99.90;;;;;;4975419;28;20211;-80
2023/01/29 07:21:13;;;;;;;13.47;7.43;;;4.20;99.90;;;;;;4975293;28;20660;-80
2023/01/29 07:24:02;;;;;;;9.87;8.00;;;4.20;99.90;;;;;;4975297;28;20230;-80
2023/01/29 07:26:59;;;;;;;8.57;6.77;;;4.30;99.90;;;;;;4975144;28;20203;-81
2023/01/29 07:29:49;;;;;;;11.27;6.87;;;4.30;99.90;;;;;;4956387;28;20209;-80
2023/01/29 07:32:18;;;;;;;13.33;7.30;;;4.40;99.90;;;;;;4975098;28;20240;-79
2023/01/29 07:34:47;;;;;;;7.97;5.73;;;4.40;99.90;;;;;;4975257;28;20217;-81
2023/01/29 07:37:17;;;;;;;9.93;6.37;;;4.40;99.90;;;;;;4975217;28;20209;-80
2023/01/29 07:39:52;;;;;;;9.50;6.53;;;4.40;99.90;;;;;;4877420;29;20243;-81
2023/01/29 07:42:57;;;;;;;13.53;9.57;;;4.40;99.90;;;;;;4862293;29;20204;-81
2023/01/29 07:45:28;;;;;;;11.10;7.67;;;4.40;99.90;;;;;;4859783;29;20205;-81
2023/01/29 07:47:58;;;;;;;10.07;6.70;;;4.40;99.90;;;;;;4877782;29;20342;-80
2023/01/29 07:50:42;;;;;;;12.30;7.63;;;4.40;99.90;;;;;;4877540;29;20208;-81
2023/01/29 07:53:15;;;;;;;10.23;7.77;;;4.40;99.90;;;;;;4877678;29;20214;-81
2023/01/29 07:55:45;;;;;;;9.67;6.90;;;4.40;99.90;;;;;;4877755;29;20733;-80
2023/01/29 07:58:14;;;;;;;10.80;7.03;;;4.50;99.90;;;;;;4935009;28;20216;-81
2023/01/29 08:00:57;;;;;;;9.23;6.00;;;4.50;99.90;;;;;;4973609;28;20697;-81
2023/01/29 08:03:26;;;;;;;9.93;6.53;;;4.60;99.90;;;;;;4974654;28;20236;-80
2023/01/29 08:05:55;;;;;;;17.20;8.13;;;4.60;99.90;;;;;;4956617;28;20239;-80
2023/01/29 08:08:25;;;;;;;11.93;6.33;;;4.60;99.90;;;;;;4957211;28;20219;-80
2023/01/29 08:10:54;;;;;;;8.67;6.13;;;4.60;99.90;;;;;;4974425;28;20560;-81
2023/01/29 08:13:23;;;;;;;9.80;5.80;;;4.60;99.90;;;;;;4974366;28;20593;-81
2023/01/29 08:15:52;;;;;;;7.43;4.63;;;4.60;99.90;;;;;;4974454;28;20219;-81
2023/01/29 08:18:21;;;;;;;7.03;5.60;;;4.60;99.90;;;;;;4974403;28;20603;-79
2023/01/29 08:20:49;;;;;;;8.23;5.47;;;4.70;99.90;;;;;;4974390;28;20197;-78
2023/01/29 08:23:31;;;;;;;7.90;5.70;;;4.70;99.90;;;;;;4956974;28;20208;-80
2023/01/29 08:26:02;;;;;;;13.67;5.20;;;4.80;99.90;;;;;;4974196;28;20198;-81
2023/01/29 08:28:31;;;;;;;10.03;5.83;;;4.80;99.90;;;;;;4973934;28;20311;-77
2023/01/29 08:31:00;;;;;;;10.23;6.03;;;4.80;99.90;;;;;;4976384;28;20208;-79
2023/01/29 08:33:29;;;;;;;9.60;6.17;;;4.80;99.90;;;;;;4984906;28;20298;-76
2023/01/29 08:36:07;;;;;;;11.93;5.30;;;4.80;99.90;;;;;;4993717;28;20204;-79
2023/01/29 08:38:38;;;;;;;10.57;6.27;;;4.80;99.90;;;;;;4993356;28;20201;-81
2023/01/29 08:41:07;;;;;;;9.40;5.80;;;4.80;99.90;;;;;;4993479;28;20200;-78
2023/01/29 08:43:40;;;;;;;7.17;5.90;;;4.80;99.90;;;;;;4993331;28;20203;-80
2023/01/29 08:46:09;;;;;;;8.30;5.33;;;4.80;99.90;;;;;;4992787;28;20203;-79
2023/01/29 08:48:38;;;;;;;12.30;6.03;;;4.90;99.90;;;;;;4993551;28;20232;-77
2023/01/29 08:51:10;;;;;;;6.60;5.80;;;4.80;99.90;;;;;;4992031;28;20278;-79
2023/01/29 08:53:40;;;;;;;9.77;6.03;;;4.80;99.90;;;;;;4975832;28;20204;-76
2023/01/29 08:56:09;;;;;;;10.00;6.30;;;4.80;99.90;;;;;;4993287;28;20209;-76
2023/01/29 08:58:38;;;;;;;9.67;6.00;;;4.80;99.90;;;;;;4993236;28;20663;-77
2023/01/29 09:08:22;;;;;;;;;;;;;;;;;;;;;
2023/01/29 09:11:01;;;;;;;11.73;7.73;;;5.00;99.90;;;;;;4974622;23;20185;-75
2023/01/29 09:13:34;;;;;;;11.13;7.70;;;5.00;99.90;;;;;;4953874;29;20581;-75
2023/01/29 09:16:04;;;;;;;10.40;7.27;;;5.10;99.90;;;;;;4953646;29;20613;-74
2023/01/29 09:18:33;;;;;;;11.57;6.67;;;5.10;99.90;;;;;;4953826;29;20627;-76
2023/01/29 09:21:05;;;;;;;9.83;6.47;;;5.10;99.90;;;;;;4963528;28;20242;-74
2023/01/29 09:23:34;;;;;;;9.83;6.77;;;5.10;99.90;;;;;;4973499;28;20241;-75
2023/01/29 09:26:07;;;;;;;9.17;5.63;;;5.10;99.90;;;;;;4973361;28;20623;-74
2023/01/29 09:28:36;;;;;;;15.83;10.43;;;5.10;99.90;;;;;;4972859;28;20225;-76
2023/01/29 09:31:05;;;;;;;7.37;5.07;;;5.10;99.90;;;;;;4973246;28;20683;-75
2023/01/29 09:33:34;;;;;;;7.60;5.00;;;5.10;99.90;;;;;;4973121;28;20213;-75
2023/01/29 09:36:03;;;;;;;5.83;4.40;;;5.10;99.90;;;;;;4973308;28;20606;-75
2023/01/29 09:38:32;;;;;;;6.13;4.93;;;5.10;99.90;;;;;;4955359;28;20549;-75
2023/01/29 09:41:15;;;;;;;3.87;3.47;;;5.10;99.90;;;;;;4973304;28;20226;-76
2023/01/29 09:43:49;;;;;;;6.83;3.97;;;5.10;99.90;;;;;;4972781;28;20206;-75
2023/01/29 09:46:22;;;;;;;5.03;4.53;;;5.10;99.90;;;;;;4973155;28;20221;-76
2023/01/29 09:49:00;;;;;;;5.10;4.50;;;5.10;99.90;;;;;;4973310;28;20346;-75
2023/01/29 09:51:34;;;;;;;4.90;4.03;;;5.10;99.90;;;;;;4947680;28;20204;-76
2023/01/29 09:54:14;;;;;;;3.70;3.37;;;5.00;99.90;;;;;;4934962;29;20223;-75
2023/01/29 09:56:46;;;;;;;4.33;3.93;;;5.00;99.90;;;;;;4934620;29;20288;-75
2023/01/29 09:59:24;;;;;;;5.63;5.13;;;5.00;99.90;;;;;;4934344;29;20207;-76
2023/01/29 10:02:04;;;;;;;6.37;5.00;;;5.00;99.90;;;;;;4934857;29;20923;-74
2023/01/29 10:05:06;;;;;;;8.80;4.77;;;5.00;99.90;;;;;;4934799;29;20564;-74
2023/01/29 10:08:08;;;;;;;4.90;4.50;;;5.00;99.90;;;;;;4934601;29;20634;-75
2023/01/29 10:10:48;;;;;;;6.40;4.80;;;5.00;99.90;;;;;;4852976;29;20217;-75
2023/01/29 10:13:29;;;;;;;4.60;3.43;;;5.00;99.90;;;;;;4875517;29;20209;-74
2023/01/29 10:16:10;;;;;;;6.37;5.00;;;5.00;99.90;;;;;;4860031;29;20210;-74
2023/01/29 10:18:53;;;;;;;4.40;3.77;;;5.00;99.90;;;;;;4876098;29;20699;-74
2023/01/29 10:21:35;;;;;;;6.63;4.43;;;5.00;99.90;;;;;;4886853;29;20217;-75
2023/01/29 10:24:23;;;;;;;4.80;4.30;;;5.10;99.90;;;;;;4894604;29;20674;-76
2023/01/29 10:26:56;;;;;;;4.70;3.33;;;5.10;99.90;;;;;;4893896;29;20226;-78
2023/01/29 10:29:29;;;;;;;5.17;3.77;;;5.10;99.90;;;;;;4897012;29;20244;-76
2023/01/29 10:32:04;;;;;;;4.57;4.10;;;5.20;99.90;;;;;;4897423;29;20212;-75
2023/01/29 10:34:39;;;;;;;8.70;5.77;;;5.20;99.90;;;;;;4897717;29;20246;-75
2023/01/29 10:37:17;;;;;;;7.90;6.43;;;5.30;99.90;;;;;;4897507;29;20208;-75
2023/01/29 10:39:46;;;;;;;6.57;5.00;;;5.30;99.90;;;;;;4897688;29;20239;-74
2023/01/29 10:42:24;;;;;;;6.07;5.03;;;5.30;99.90;;;;;;4897082;29;20285;-75
2023/01/29 10:45:06;;;;;;;4.63;4.20;;;5.20;99.90;;;;;;4897522;29;20213;-75
2023/01/29 10:47:52;;;;;;;6.77;4.93;;;5.20;99.90;;;;;;4925891;29;20205;-75
2023/01/29 10:50:42;;;;;;;6.23;5.00;;;5.20;99.90;;;;;;4956860;29;20225;-75
2023/01/29 10:53:27;;;;;;;5.60;4.23;;;5.20;99.90;;;;;;4956730;29;20202;-74
2023/01/29 10:56:04;;;;;;;6.47;5.87;;;5.20;99.90;;;;;;4954683;29;20688;-75
2023/01/29 10:58:52;;;;;;;9.17;6.80;;;5.20;99.90;;;;;;4956566;29;20677;-74
2023/01/29 11:01:22;;;;;;;5.27;4.40;;;5.30;99.90;;;;;;4956124;28;20204;-74
2023/01/29 11:03:59;;;;;;;6.10;5.03;;;5.30;99.90;;;;;;4956500;29;20211;-75
2023/01/29 11:06:31;;;;;;;5.67;4.63;;;5.30;99.90;;;;;;4956420;29;20250;-76
2023/01/29 11:09:07;;;;;;;4.97;4.47;;;5.20;99.90;;;;;;4956292;29;20224;-75
2023/01/29 11:11:43;;;;;;;6.07;4.70;;;5.20;99.90;;;;;;4955689;29;20239;-76
2023/01/29 11:14:16;;;;;;;6.17;4.90;;;5.20;99.90;;;;;;4955970;29;20585;-76
2023/01/29 11:16:48;;;;;;;7.50;4.77;;;5.20;99.90;;;;;;4956167;29;20211;-75
2023/01/29 11:19:17;;;;;;;5.17;4.67;;;5.20;99.90;;;;;;4956234;29;20201;-74
2023/01/29 11:21:56;;;;;;;5.60;4.33;;;5.20;99.90;;;;;;4956011;29;20677;-75
2023/01/29 11:24:26;;;;;;;6.70;4.50;;;5.20;99.90;;;;;;4956154;29;20206;-75
2023/01/29 11:26:58;;;;;;;5.27;4.40;;;5.20;99.90;;;;;;4955762;29;20233;-76
2023/01/29 11:29:43;;;;;;;4.30;3.90;;;5.20;99.90;;;;;;4951482;28;20226;-74
2023/01/29 11:32:24;;;;;;;4.90;4.47;;;5.30;99.90;;;;;;4955813;29;20222;-74
2023/01/29 11:35:04;;;;;;;4.87;4.40;;;5.30;99.90;;;;;;4956275;29;20216;-74
2023/01/29 11:37:36;;;;;;;5.37;4.27;;;5.30;99.90;;;;;;4955684;29;20210;-75
2023/01/29 11:40:34;;;;;;;5.67;4.70;;;5.30;99.90;;;;;;4954592;28;20200;-76
2023/01/29 11:43:21;;;;;;;8.23;4.70;;;5.30;99.90;;;;;;4955749;29;20537;-76
2023/01/29 11:45:53;;;;;;;5.47;4.40;;;5.30;99.90;;;;;;4955234;29;20199;-75
2023/01/29 11:48:32;;;;;;;5.73;4.03;;;5.30;99.90;;;;;;4955457;29;20208;-75
2023/01/29 11:51:02;;;;;;;6.20;5.03;;;5.30;99.90;;;;;;4955447;29;20747;-75
2023/01/29 11:53:40;;;;;;;6.37;5.03;;;5.40;99.90;;;;;;4955430;29;20559;-76
2023/01/29 11:56:22;;;;;;;5.90;5.03;;;5.40;99.90;;;;;;4955330;29;20391;-76
2023/01/29 11:58:56;;;;;;;5.27;4.77;;;5.40;99.90;;;;;;4951791;28;20197;-76
2023/01/29 12:01:32;;;;;;;7.50;5.73;;;5.40;99.90;;;;;;4947020;28;20220;-76
2023/01/29 12:04:04;;;;;;;23.03;12.93;;;5.30;99.90;;;;;;4936321;29;20654;-75
2023/01/29 12:06:36;;;;;;;6.30;4.53;;;5.30;99.90;;;;;;4936014;29;20199;-75
2023/01/29 12:09:12;;;;;;;8.80;4.97;;;5.30;99.90;;;;;;4935936;29;20224;-76
2023/01/29 12:11:43;;;;;;;4.93;4.20;;;5.30;99.90;;;;;;4952636;28;20333;-76
2023/01/29 12:14:27;;;;;;;6.93;4.03;;;5.40;99.90;;;;;;4945849;28;20236;-76
2023/01/29 12:17:03;;;;;;;4.50;4.10;;;5.30;99.90;;;;;;4954915;29;20222;-76
2023/01/29 12:19:39;;;;;;;6.47;5.23;;;5.30;99.90;;;;;;4954970;29;20212;-76
2023/01/29 12:22:16;;;;;;;5.53;3.90;;;5.20;99.90;;;;;;4954909;29;20557;-76
2023/01/29 12:24:53;;;;;;;5.13;4.23;;;5.30;99.90;;;;;;4954748;29;20228;-75
2023/01/29 12:27:31;;;;;;;5.20;4.07;;;5.30;99.90;;;;;;4954505;29;20204;-74
2023/01/29 12:30:08;;;;;;;5.50;4.77;;;5.30;99.90;;;;;;4954717;29;20220;-75
2023/01/29 12:32:45;;;;;;;6.23;4.40;;;5.30;99.90;;;;;;4954364;28;20582;-75
2023/01/29 12:35:23;;;;;;;7.17;4.97;;;5.40;99.90;;;;;;4954778;28;20265;-75
2023/01/29 12:37:57;;;;;;;4.93;4.13;;;5.40;99.90;;;;;;4954128;28;20202;-75
2023/01/29 12:40:31;;;;;;;6.87;4.80;;;5.50;99.90;;;;;;4949490;28;20267;-75
2023/01/29 12:43:09;;;;;;;7.50;4.93;;;5.50;99.90;;;;;;4954803;29;20652;-75
2023/01/29 12:45:39;;;;;;;7.27;5.97;;;5.50;99.90;;;;;;4954560;29;20213;-76
2023/01/29 12:48:12;;;;;;;4.20;3.70;;;5.50;99.90;;;;;;4954197;29;20236;-76
2023/01/29 12:50:42;;;;;;;6.73;4.90;;;5.50;99.90;;;;;;4954297;28;20216;-76
2023/01/29 12:53:23;;;;;;;6.00;4.63;;;5.40;99.90;;;;;;4954509;29;20207;-76
2023/01/29 12:55:57;;;;;;;8.57;6.03;;;5.40;99.90;;;;;;4954335;29;20199;-76
2023/01/29 12:58:32;;;;;;;9.70;6.30;;;5.40;99.90;;;;;;4937293;29;20206;-76
2023/01/29 13:01:08;;;;;;;10.23;5.63;;;5.40;99.90;;;;;;4954229;29;20208;-76
2023/01/29 13:03:49;;;;;;;7.53;5.87;;;5.40;99.90;;;;;;4954300;29;20683;-75
2023/01/29 13:06:25;;;;;;;7.57;6.13;;;5.40;99.90;;;;;;4954073;29;20207;-75
2023/01/29 13:08:58;;;;;;;10.17;7.00;;;5.40;99.90;;;;;;4954196;29;20201;-75
2023/01/29 13:11:31;;;;;;;10.10;6.70;;;5.40;99.90;;;;;;4975864;23;20313;-76
2023/01/29 13:14:04;;;;;;;10.00;7.03;;;5.40;99.90;;;;;;4973325;28;20214;-75
2023/01/29 13:16:40;;;;;;;11.90;7.33;;;5.40;99.90;;;;;;4973057;28;20569;-75
2023/01/29 13:19:21;;;;;;;11.47;7.20;;;5.40;99.90;;;;;;4973449;28;20244;-75
2023/01/29 13:21:54;;;;;;;9.07;6.33;;;5.40;99.90;;;;;;4973521;28;20265;-75
2023/01/29 13:24:25;;;;;;;10.03;6.60;;;5.40;99.90;;;;;;4973218;28;20710;-76
2023/01/29 13:26:54;;;;;;;9.37;7.20;;;5.50;99.90;;;;;;4973266;28;20217;-75
2023/01/29 13:29:25;;;;;;;8.90;6.27;;;5.50;99.90;;;;;;4973421;28;20230;-75
2023/01/29 13:31:55;;;;;;;11.07;6.87;;;5.50;99.90;;;;;;4973053;28;20303;-76
2023/01/29 13:34:27;;;;;;;7.83;6.80;;;5.50;99.90;;;;;;4973322;28;20756;-75
2023/01/29 13:37:00;;;;;;;9.57;6.10;;;5.50;99.90;;;;;;4972953;28;20198;-75
2023/01/29 13:39:31;;;;;;;9.93;7.53;;;5.50;99.90;;;;;;4973077;28;20265;-76
2023/01/29 13:42:03;;;;;;;13.50;8.03;;;5.40;99.90;;;;;;4953917;29;20221;-75
2023/01/29 13:44:35;;;;;;;12.10;7.60;;;5.50;99.90;;;;;;4953782;29;20205;-77
2023/01/29 13:47:07;;;;;;;12.43;8.53;;;5.60;99.90;;;;;;4953442;28;20204;-76
2023/01/29 13:49:40;;;;;;;10.57;7.80;;;5.60;99.90;;;;;;4953597;28;20220;-76
2023/01/29 13:52:26;;;;;;;11.33;7.87;;;5.60;99.90;;;;;;4953776;29;20222;-75
2023/01/29 13:54:57;;;;;;;14.10;8.50;;;5.60;99.90;;;;;;4953746;29;20262;-75
2023/01/29 13:57:50;;;;;;;11.47;7.87;;;5.60;99.90;;;;;;4953459;28;20213;-75
2023/01/29 14:00:59;;;;;;;12.17;8.17;;;5.50;99.90;;;;;;4953588;28;20194;-75
2023/01/29 14:03:54;;;;;;;11.17;7.13;;;5.50;99.90;;;;;;4955549;28;20204;-76
2023/01/29 14:06:51;;;;;;;14.23;8.93;;;5.50;99.90;;;;;;4957114;28;20231;-75
2023/01/29 14:09:56;;;;;;;9.73;6.77;;;5.50;99.90;;;;;;4956983;29;20211;-75
2023/01/29 14:12:39;;;;;;;9.43;6.93;;;5.60;99.90;;;;;;4897390;29;20216;-75
2023/01/29 14:15:33;;;;;;;14.40;8.03;;;5.60;99.90;;;;;;4906320;29;20208;-74
2023/01/29 14:18:17;;;;;;;10.67;7.47;;;5.60;99.90;;;;;;4841926;29;20213;-75
2023/01/29 14:20:58;;;;;;;13.23;8.60;;;5.60;99.90;;;;;;4842179;29;20581;-74
2023/01/29 14:23:43;;;;;;;9.60;8.27;;;5.60;99.90;;;;;;4842103;29;20231;-73
2023/01/29 14:26:33;;;;;;;12.77;8.73;;;5.60;99.90;;;;;;4841874;29;20232;-75
2023/01/29 14:29:08;;;;;;;15.30;10.00;;;5.50;99.90;;;;;;4842059;29;20217;-75
2023/01/29 14:31:44;;;;;;;18.73;9.47;;;5.60;99.90;;;;;;4841860;29;20239;-75
2023/01/29 14:34:24;;;;;;;14.50;9.93;;;5.60;99.90;;;;;;4841275;29;20215;-74
2023/01/29 14:36:56;;;;;;;10.73;8.03;;;5.60;99.90;;;;;;4841698;29;20232;-74